createdAt,value
2019-01-20T00:00:53.247Z,9.43
2019-01-20T00:03:22.421Z,8.80
2019-01-20T00:05:51.699Z,8.20
2019-01-20T00:08:21.059Z,7.53
2019-01-20T00:10:50.171Z,7.63
2019-01-20T00:13:19.255Z,8.47
2019-01-20T00:15:48.449Z,7.20
2019-01-20T00:18:17.535Z,7.53
2019-01-20T00:20:46.677Z,10.90
2019-01-20T00:23:15.766Z,9.67
2019-01-20T00:25:44.863Z,8.10
2019-01-20T00:28:13.951Z,7.23
2019-01-20T00:30:43.064Z,7.83
2019-01-20T00:33:12.435Z,6.60
2019-01-20T00:35:41.543Z,7.90
2019-01-20T00:38:10.640Z,8.63
2019-01-20T00:40:39.758Z,8.10
2019-01-20T00:43:08.839Z,8.30
2019-01-20T00:45:38.273Z,7.90
2019-01-20T00:48:07.362Z,8.40
2019-01-20T00:50:36.761Z,9.03
2019-01-20T00:53:05.875Z,10.80
2019-01-20T00:55:35.106Z,9.50
2019-01-20T00:58:04.722Z,9.23
2019-01-20T01:00:34.347Z,8.00
2019-01-20T01:03:03.698Z,9.10
2019-01-20T01:05:32.941Z,8.10
2019-01-20T01:08:02.372Z,7.90
2019-01-20T01:10:31.819Z,9.73
2019-01-20T01:13:03.674Z,7.33
2019-01-20T01:15:32.823Z,9.97
2019-01-20T01:18:01.991Z,9.33
2019-01-20T01:20:31.104Z,8.23
2019-01-20T01:23:00.564Z,8.90
2019-01-20T01:25:29.675Z,9.97
2019-01-20T01:27:58.879Z,14.20
2019-01-20T01:30:27.978Z,44.93
2019-01-20T01:32:57.459Z,15.30
2019-01-20T01:35:26.571Z,11.47
2019-01-20T01:37:55.928Z,10.50
2019-01-20T01:40:26.179Z,9.23
2019-01-20T01:42:55.660Z,9.87
2019-01-20T01:45:24.839Z,9.27
2019-01-20T01:47:53.922Z,8.90
2019-01-20T01:50:23.102Z,8.00
2019-01-20T01:52:52.483Z,9.20
2019-01-20T01:55:21.851Z,8.07
2019-01-20T01:57:51.203Z,9.90
2019-01-20T02:00:22.240Z,9.10
2019-01-20T02:02:51.651Z,8.20
2019-01-20T02:05:21.096Z,9.47
2019-01-20T02:07:50.178Z,8.77
2019-01-20T02:10:22.825Z,10.27
2019-01-20T02:12:52.851Z,9.37
2019-01-20T02:15:22.918Z,9.33
2019-01-20T02:17:52.095Z,7.27
2019-01-20T02:20:24.800Z,7.90
2019-01-20T02:22:53.878Z,9.20
2019-01-20T02:25:23.064Z,8.23
2019-01-20T02:27:54.923Z,8.23
2019-01-20T02:30:26.350Z,9.60
2019-01-20T02:32:55.471Z,8.27
2019-01-20T02:35:24.587Z,9.23
2019-01-20T02:37:54.263Z,8.80
2019-01-20T02:40:23.426Z,9.20
2019-01-20T02:42:52.648Z,9.37
2019-01-20T02:45:22.069Z,8.07
2019-01-20T02:47:51.205Z,9.77
2019-01-20T02:50:20.318Z,9.80
2019-01-20T02:52:49.723Z,9.20
2019-01-20T02:55:18.904Z,8.77
2019-01-20T02:57:48.094Z,8.57
2019-01-20T03:00:20.112Z,8.17
2019-01-20T03:02:49.557Z,8.57
2019-01-20T03:05:19.587Z,9.33
2019-01-20T03:07:48.987Z,8.40
2019-01-20T03:10:18.341Z,8.60
2019-01-20T03:12:47.469Z,9.83
2019-01-20T03:15:16.836Z,8.97
2019-01-20T03:17:46.036Z,7.00
2019-01-20T03:20:20.075Z,7.83
2019-01-20T03:22:49.209Z,9.00
2019-01-20T03:25:18.606Z,9.00
2019-01-20T03:27:47.830Z,8.47
2019-01-20T03:30:19.178Z,7.73
2019-01-20T03:32:48.374Z,9.20
2019-01-20T03:35:21.175Z,9.03
2019-01-20T03:37:50.466Z,7.93
2019-01-20T03:40:20.058Z,7.73
2019-01-20T03:42:49.851Z,8.00
2019-01-20T03:45:19.211Z,8.37
2019-01-20T03:47:49.015Z,8.27
2019-01-20T03:50:18.221Z,7.80
2019-01-20T03:52:48.119Z,8.90
2019-01-20T03:55:17.659Z,8.20
2019-01-20T03:57:46.852Z,8.60
2019-01-20T04:00:20.931Z,9.40
2019-01-20T04:02:55.723Z,8.30
2019-01-20T04:05:24.899Z,9.27
2019-01-20T04:07:54.095Z,9.07
2019-01-20T04:10:23.211Z,9.10
2019-01-20T04:12:52.613Z,8.63
2019-01-20T04:15:21.731Z,10.07
2019-01-20T04:17:50.852Z,8.47
2019-01-20T04:20:19.958Z,8.47
2019-01-20T04:22:49.097Z,8.07
2019-01-20T04:25:19.096Z,9.70
2019-01-20T04:27:48.523Z,8.40
2019-01-20T04:30:19.631Z,8.07
2019-01-20T04:32:48.871Z,8.93
2019-01-20T04:35:18.371Z,8.13
2019-01-20T04:37:47.512Z,8.23
2019-01-20T04:40:21.864Z,8.90
2019-01-20T04:42:50.999Z,8.23
2019-01-20T04:45:20.144Z,7.10
2019-01-20T04:47:49.315Z,9.03
2019-01-20T04:50:23.258Z,8.60
2019-01-20T04:52:52.411Z,8.13
2019-01-20T04:55:21.964Z,8.77
2019-01-20T04:57:53.247Z,10.00
2019-01-20T05:00:27.305Z,11.73
2019-01-20T05:02:56.567Z,8.80
2019-01-20T05:05:25.803Z,9.10
2019-01-20T05:07:54.955Z,9.67
2019-01-20T05:10:24.391Z,8.40
2019-01-20T05:12:53.773Z,9.53
2019-01-20T05:15:25.002Z,8.57
2019-01-20T05:17:54.211Z,8.43
2019-01-20T05:20:23.585Z,9.37
2019-01-20T05:22:52.724Z,9.50
2019-01-20T05:25:21.840Z,10.83
2019-01-20T05:27:51.258Z,10.47
2019-01-20T05:30:24.040Z,9.33
2019-01-20T05:32:53.226Z,8.00
2019-01-20T05:35:22.351Z,8.93
2019-01-20T05:37:51.735Z,8.50
2019-01-20T05:40:21.182Z,10.00
2019-01-20T05:42:50.775Z,8.60
2019-01-20T05:45:22.126Z,8.80
2019-01-20T05:47:51.855Z,9.20
2019-01-20T05:50:21.091Z,10.33
2019-01-20T05:52:50.475Z,9.43
2019-01-20T05:55:19.854Z,10.00
2019-01-20T05:57:49.316Z,8.87
2019-01-20T06:00:23.531Z,8.70
2019-01-20T06:02:52.690Z,8.27
2019-01-20T06:05:22.112Z,9.40
2019-01-20T06:07:51.511Z,9.50
2019-01-20T06:10:20.887Z,7.90
2019-01-20T06:12:54.287Z,9.13
2019-01-20T06:15:21.519Z,10.27
2019-01-20T06:17:50.960Z,11.57
2019-01-20T06:20:20.341Z,13.80
2019-01-20T06:22:50.031Z,14.57
2019-01-20T06:25:19.402Z,13.20
2019-01-20T06:27:48.563Z,12.30
2019-01-20T06:30:23.308Z,15.03
2019-01-20T06:32:52.964Z,11.93
2019-01-20T06:35:22.331Z,10.60
2019-01-20T06:37:51.716Z,9.40
2019-01-20T06:40:21.097Z,9.60
2019-01-20T06:42:50.410Z,10.20
2019-01-20T06:45:19.594Z,10.10
2019-01-20T06:47:50.784Z,10.03
2019-01-20T06:50:21.506Z,11.20
2019-01-20T06:52:51.748Z,10.13
2019-01-20T06:55:21.836Z,12.67
2019-01-20T06:57:51.645Z,13.50
2019-01-20T07:00:24.816Z,11.03
2019-01-20T07:02:54.099Z,12.27
2019-01-20T07:05:24.047Z,12.27
2019-01-20T07:07:53.611Z,12.20
2019-01-20T07:10:23.606Z,12.07
2019-01-20T07:12:52.832Z,11.83
2019-01-20T07:15:25.274Z,11.70
2019-01-20T07:17:55.191Z,11.93
2019-01-20T07:20:25.088Z,11.50
2019-01-20T07:22:55.790Z,12.73
2019-01-20T07:25:25.287Z,11.73
2019-01-20T07:27:59.906Z,11.97
2019-01-20T07:30:30.605Z,11.20
2019-01-20T07:33:03.122Z,12.00
2019-01-20T07:35:32.369Z,11.40
2019-01-20T07:38:01.861Z,11.13
2019-01-20T07:40:31.359Z,12.77
2019-01-20T07:43:00.799Z,12.40
2019-01-20T07:45:30.024Z,12.27
2019-01-20T07:48:03.151Z,11.07
2019-01-20T07:50:32.763Z,11.80
2019-01-20T07:53:02.440Z,11.77
2019-01-20T07:55:32.310Z,12.80
2019-01-20T07:58:02.191Z,12.37
2019-01-20T08:00:41.389Z,11.30
2019-01-20T08:03:10.881Z,11.73
2019-01-20T08:05:40.485Z,11.13
2019-01-20T08:08:09.763Z,12.80
2019-01-20T08:10:39.716Z,12.30
2019-01-20T08:13:09.799Z,11.23
2019-01-20T08:15:38.969Z,11.20
2019-01-20T08:18:08.849Z,12.00
2019-01-20T08:20:38.127Z,11.97
2019-01-20T08:23:07.316Z,10.13
2019-01-20T08:25:36.726Z,11.00
2019-01-20T08:28:05.962Z,11.10
2019-01-20T08:30:35.395Z,10.00
2019-01-20T08:33:04.915Z,11.60
2019-01-20T08:35:34.303Z,11.60
2019-01-20T08:38:03.427Z,9.50
2019-01-20T08:40:32.848Z,11.00
2019-01-20T08:43:04.324Z,11.10
2019-01-20T08:46:20.785Z,10.87
2019-01-20T08:48:50.980Z,9.70
2019-01-20T08:51:20.315Z,10.10
2019-01-20T08:53:49.484Z,9.70
2019-01-20T08:56:19.280Z,9.20
2019-01-20T08:58:48.776Z,9.60
2019-01-20T09:01:17.978Z,10.43
2019-01-20T09:03:47.537Z,8.97
2019-01-20T09:06:16.680Z,11.60
2019-01-20T09:08:46.067Z,12.33
2019-01-20T09:11:19.035Z,11.50
2019-01-20T09:13:49.393Z,9.20
2019-01-20T09:16:23.910Z,10.87
2019-01-20T09:18:53.551Z,10.00
2019-01-20T09:21:37.060Z,10.33
2019-01-20T09:24:06.400Z,10.40
2019-01-20T09:26:38.124Z,11.87
2019-01-20T09:29:13.765Z,10.83
2019-01-20T09:31:43.696Z,9.73
2019-01-20T09:34:13.728Z,10.30
2019-01-20T09:36:44.039Z,10.57
2019-01-20T09:39:14.727Z,11.17
2019-01-20T09:41:44.356Z,10.27
2019-01-20T09:44:17.091Z,9.70
2019-01-20T09:46:49.187Z,10.77
2019-01-20T09:49:20.071Z,10.90
2019-01-20T09:51:49.298Z,24.80
2019-01-20T09:54:18.739Z,15.13
2019-01-20T09:56:48.143Z,10.40
2019-01-20T09:59:17.532Z,10.43
2019-01-20T10:01:46.720Z,10.20
2019-01-20T10:04:16.143Z,13.13
2019-01-20T10:06:45.489Z,14.23
2019-01-20T10:09:14.931Z,12.47
2019-01-20T10:11:44.342Z,12.13
2019-01-20T10:14:13.785Z,11.13
2019-01-20T10:16:43.209Z,12.80
2019-01-20T10:19:12.301Z,12.57
2019-01-20T10:21:41.474Z,13.80
2019-01-20T10:24:10.859Z,13.70
2019-01-20T10:26:40.269Z,12.83
2019-01-20T10:29:09.367Z,12.10
2019-01-20T10:31:38.520Z,12.60
2019-01-20T10:34:07.872Z,13.57
2019-01-20T10:36:37.063Z,11.90
2019-01-20T10:39:11.191Z,21.43
2019-01-20T10:41:40.451Z,13.43
2019-01-20T10:44:09.811Z,12.80
2019-01-20T10:46:39.223Z,12.73
2019-01-20T10:49:07.827Z,12.30
2019-01-20T10:51:37.495Z,13.00
2019-01-20T10:54:07.276Z,13.23
2019-01-20T10:56:36.553Z,12.73
2019-01-20T10:59:06.576Z,13.10
2019-01-20T11:01:35.839Z,13.53
2019-01-20T11:04:05.175Z,12.70
2019-01-20T11:06:34.679Z,12.90
2019-01-20T11:09:05.184Z,13.43
2019-01-20T11:11:34.296Z,13.17
2019-01-20T11:14:09.420Z,14.50
2019-01-20T11:16:35.320Z,14.63
2019-01-20T11:19:05.402Z,14.27
2019-01-20T11:21:35.388Z,14.50
2019-01-20T11:24:05.048Z,13.30
2019-01-20T11:26:34.689Z,14.20
2019-01-20T11:29:04.336Z,15.53
2019-01-20T11:31:33.566Z,15.40
2019-01-20T11:34:03.266Z,14.90
2019-01-20T11:36:32.934Z,13.93
2019-01-20T11:39:02.042Z,14.87
2019-01-20T11:41:31.434Z,14.70
2019-01-20T11:44:00.642Z,16.63
2019-01-20T11:46:29.853Z,14.97
2019-01-20T11:48:59.060Z,14.90
2019-01-20T11:51:28.691Z,15.27
2019-01-20T11:53:58.086Z,14.67
2019-01-20T11:56:27.226Z,15.40
2019-01-20T11:58:56.915Z,13.03
2019-01-20T12:01:26.087Z,13.03
2019-01-20T12:03:55.324Z,14.17
2019-01-20T12:06:24.440Z,13.10
2019-01-20T12:08:53.604Z,14.43
2019-01-20T12:11:23.344Z,13.87
2019-01-20T12:13:52.834Z,15.40
2019-01-20T12:16:21.985Z,14.70
2019-01-20T12:18:51.097Z,16.97
2019-01-20T12:21:20.497Z,14.63
2019-01-20T12:23:50.226Z,14.07
2019-01-20T12:26:19.408Z,15.40
2019-01-20T12:28:48.919Z,15.37
2019-01-20T12:31:18.299Z,14.37
2019-01-20T12:33:47.406Z,13.60
2019-01-20T12:36:16.563Z,14.07
2019-01-20T12:38:45.990Z,14.03
2019-01-20T12:41:15.103Z,13.60
2019-01-20T12:43:44.264Z,14.67
2019-01-20T12:46:13.432Z,16.83
2019-01-20T12:48:42.907Z,14.67
2019-01-20T12:51:12.522Z,14.20
2019-01-20T12:53:41.943Z,15.87
2019-01-20T12:56:11.051Z,14.40
2019-01-20T12:58:40.359Z,15.07
2019-01-20T13:01:09.560Z,14.73
2019-01-20T13:03:39.211Z,14.33
2019-01-20T13:06:08.609Z,15.43
2019-01-20T13:08:38.086Z,16.03
2019-01-20T13:11:07.443Z,17.63
2019-01-20T13:13:37.615Z,16.70
2019-01-20T13:16:07.038Z,18.40
2019-01-20T13:18:36.182Z,15.10
2019-01-20T13:21:05.552Z,16.10
2019-01-20T13:23:34.788Z,15.70
2019-01-20T13:26:03.980Z,14.60
2019-01-20T13:28:33.374Z,14.13
2019-01-20T13:31:02.989Z,13.73
2019-01-20T13:33:32.098Z,14.27
2019-01-20T13:36:07.054Z,13.53
2019-01-20T13:38:32.671Z,15.10
2019-01-20T13:41:26.178Z,14.60
2019-01-20T13:43:56.170Z,13.43
2019-01-20T13:46:25.920Z,15.73
2019-01-20T13:48:55.894Z,14.50
2019-01-20T13:51:25.007Z,15.53
2019-01-20T13:53:54.410Z,13.87
2019-01-20T13:56:23.959Z,14.47
2019-01-20T13:58:53.545Z,15.70
2019-01-20T14:01:22.724Z,14.50
2019-01-20T14:03:52.059Z,14.60
2019-01-20T14:06:21.240Z,14.70
2019-01-20T14:08:50.444Z,13.20
2019-01-20T14:11:19.582Z,14.13
2019-01-20T14:13:49.534Z,14.00
2019-01-20T14:16:18.949Z,13.87
2019-01-20T14:18:48.143Z,14.00
2019-01-20T14:21:17.694Z,13.90
2019-01-20T14:23:47.063Z,14.13
2019-01-20T14:26:16.508Z,14.47
2019-01-20T14:28:45.896Z,13.00
2019-01-20T14:31:15.150Z,15.10
2019-01-20T14:33:44.597Z,14.00
2019-01-20T14:36:14.727Z,13.70
2019-01-20T14:38:44.152Z,13.70
2019-01-20T14:41:13.360Z,14.60
2019-01-20T14:43:42.740Z,13.73
2019-01-20T14:46:11.935Z,14.77
2019-01-20T14:48:41.332Z,15.10
2019-01-20T14:51:10.446Z,14.57
2019-01-20T14:53:40.466Z,15.00
2019-01-20T14:56:09.891Z,14.77
2019-01-20T14:58:39.446Z,17.40
2019-01-20T15:01:08.923Z,16.40
2019-01-20T15:03:38.074Z,16.10
2019-01-20T15:06:07.559Z,16.27
2019-01-20T15:08:36.660Z,17.70
2019-01-20T15:11:06.166Z,15.20
2019-01-20T15:13:35.548Z,15.33
2019-01-20T15:16:04.665Z,19.40
2019-01-20T15:18:34.096Z,15.60
2019-01-20T15:21:03.215Z,16.23
2019-01-20T15:23:33.902Z,16.47
2019-01-20T15:26:03.095Z,16.33
2019-01-20T15:28:32.454Z,15.20
2019-01-20T15:31:01.674Z,15.13
2019-01-20T15:33:30.835Z,17.83
2019-01-20T15:36:00.063Z,17.43
2019-01-20T15:38:29.302Z,17.50
2019-01-20T15:40:58.412Z,17.23
2019-01-20T15:43:27.624Z,16.17
2019-01-20T15:45:56.807Z,17.30
2019-01-20T15:48:25.933Z,16.70
2019-01-20T15:50:55.076Z,18.20
2019-01-20T15:53:24.199Z,16.27
2019-01-20T15:55:53.585Z,19.17
2019-01-20T15:58:22.723Z,17.30
2019-01-20T16:00:51.878Z,16.10
2019-01-20T16:03:20.979Z,17.10
2019-01-20T16:05:50.412Z,19.67
2019-01-20T16:08:19.547Z,18.37
2019-01-20T16:10:49.191Z,17.80
2019-01-20T16:13:18.343Z,17.53
2019-01-20T16:15:47.771Z,16.93
2019-01-20T16:18:17.204Z,17.37
2019-01-20T16:20:46.355Z,17.87
2019-01-20T16:23:15.800Z,16.47
2019-01-20T16:25:45.548Z,17.13
2019-01-20T16:28:14.779Z,17.30
2019-01-20T16:30:43.887Z,19.20
2019-01-20T16:33:13.017Z,22.37
2019-01-20T16:35:42.447Z,21.00
2019-01-20T16:38:12.612Z,22.97
2019-01-20T16:40:41.722Z,20.63
2019-01-20T16:43:11.135Z,21.30
2019-01-20T16:45:44.539Z,21.77
2019-01-20T16:48:14.134Z,20.70
2019-01-20T16:50:43.714Z,17.00
2019-01-20T16:53:13.083Z,18.40
2019-01-20T16:55:42.772Z,20.00
2019-01-20T16:58:11.887Z,19.43
2019-01-20T17:00:43.077Z,18.77
2019-01-20T17:03:12.499Z,18.60
2019-01-20T17:05:41.781Z,18.27
2019-01-20T17:08:11.492Z,16.50
2019-01-20T17:10:42.114Z,17.50
2019-01-20T17:13:11.889Z,17.80
2019-01-20T17:15:42.995Z,17.87
2019-01-20T17:18:13.309Z,18.13
2019-01-20T17:20:42.722Z,17.30
2019-01-20T17:23:12.090Z,20.70
2019-01-20T17:25:41.191Z,18.50
2019-01-20T17:28:10.624Z,20.07
2019-01-20T17:30:40.070Z,19.77
2019-01-20T17:33:10.103Z,18.27
2019-01-20T17:35:39.523Z,21.60
2019-01-20T17:38:08.778Z,19.63
2019-01-20T17:40:37.943Z,19.97
2019-01-20T17:43:07.463Z,17.93
2019-01-20T17:45:46.850Z,16.97
2019-01-20T17:48:10.554Z,17.43
2019-01-20T17:50:40.767Z,15.57
2019-01-20T17:53:11.095Z,16.70
2019-01-20T17:55:40.203Z,15.90
2019-01-20T17:58:09.715Z,16.80
2019-01-20T18:00:45.046Z,17.87
2019-01-20T18:03:14.970Z,22.40
2019-01-20T18:05:44.743Z,16.70
2019-01-20T18:08:13.987Z,18.10
2019-01-20T18:10:43.112Z,21.07
2019-01-20T18:13:12.234Z,19.53
2019-01-20T18:15:41.390Z,21.90
2019-01-20T18:18:10.571Z,21.40
2019-01-20T18:20:39.733Z,23.00
2019-01-20T18:23:08.867Z,23.60
2019-01-20T18:25:37.979Z,20.10
2019-01-20T18:28:07.227Z,20.47
2019-01-20T18:30:36.426Z,22.90
2019-01-20T18:33:05.983Z,23.13
2019-01-20T18:35:35.427Z,20.37
2019-01-20T18:38:04.655Z,21.57
2019-01-20T18:40:33.868Z,22.00
2019-01-20T18:43:03.118Z,22.50
2019-01-20T18:45:32.718Z,22.40
2019-01-20T18:48:01.836Z,20.60
2019-01-20T18:50:33.259Z,20.60
2019-01-20T18:53:02.971Z,20.67
2019-01-20T18:55:32.395Z,19.07
2019-01-20T18:58:01.839Z,20.70
2019-01-20T19:00:43.421Z,19.90
2019-01-20T19:03:12.955Z,19.17
2019-01-20T19:05:42.396Z,22.03
2019-01-20T19:08:11.870Z,20.37
2019-01-20T19:10:41.090Z,20.73
2019-01-20T19:13:10.795Z,20.40
2019-01-20T19:15:39.942Z,20.80
2019-01-20T19:18:09.362Z,21.97
2019-01-20T19:20:38.719Z,19.87
2019-01-20T19:23:08.147Z,19.97
2019-01-20T19:25:37.564Z,22.20
2019-01-20T19:28:07.150Z,21.60
2019-01-20T19:30:37.228Z,21.10
2019-01-20T19:33:06.767Z,21.60
2019-01-20T19:35:36.663Z,21.00
2019-01-20T19:38:06.920Z,22.33
2019-01-20T19:40:36.143Z,22.80
2019-01-20T19:43:05.885Z,21.53
2019-01-20T19:45:35.027Z,21.00
2019-01-20T19:48:04.368Z,20.53
2019-01-20T19:50:33.800Z,24.37
2019-01-20T19:53:03.173Z,21.47
2019-01-20T19:55:33.631Z,18.13
2019-01-20T19:58:02.809Z,19.70
2019-01-20T20:00:32.895Z,19.57
2019-01-20T20:03:02.248Z,18.10
2019-01-20T20:05:32.105Z,18.00
2019-01-20T20:08:01.639Z,17.93
2019-01-20T20:10:31.022Z,18.57
2019-01-20T20:13:00.199Z,17.93
2019-01-20T20:15:29.735Z,38.17
2019-01-20T20:17:58.897Z,33.37
2019-01-20T20:20:28.152Z,38.93
2019-01-20T20:22:57.523Z,20.50
2019-01-20T20:25:27.174Z,18.30
2019-01-20T20:27:56.456Z,20.57
2019-01-20T20:30:31.387Z,20.57
2019-01-20T20:33:00.863Z,20.03
2019-01-20T20:35:30.255Z,19.13
2019-01-20T20:37:59.755Z,18.77
2019-01-20T20:40:28.914Z,18.17
2019-01-20T20:42:58.222Z,19.63
2019-01-20T20:45:27.790Z,21.53
2019-01-20T20:47:56.981Z,20.33
2019-01-20T20:50:26.236Z,19.53
2019-01-20T20:52:55.338Z,18.60
2019-01-20T20:55:25.040Z,18.33
2019-01-20T20:57:54.247Z,19.77
2019-01-20T21:00:44.555Z,18.80
2019-01-20T21:03:28.935Z,19.63
2019-01-20T21:05:59.031Z,21.00
2019-01-20T21:08:30.028Z,19.77
2019-01-20T21:10:59.188Z,19.17
2019-01-20T21:13:28.562Z,19.17
2019-01-20T21:15:57.726Z,19.73
2019-01-20T21:18:27.372Z,20.70
2019-01-20T21:20:56.513Z,20.37
2019-01-20T21:23:25.686Z,21.20
2019-01-20T21:25:55.082Z,21.60
2019-01-20T21:28:24.527Z,22.10
2019-01-20T21:30:54.666Z,21.70
2019-01-20T21:33:24.093Z,21.97
2019-01-20T21:35:53.543Z,23.60
2019-01-20T21:38:22.988Z,25.17
2019-01-20T21:40:52.220Z,25.47
2019-01-20T21:43:21.654Z,25.67
2019-01-20T21:45:51.002Z,22.63
2019-01-20T21:48:20.170Z,21.77
2019-01-20T21:50:49.302Z,20.33
2019-01-20T21:53:18.419Z,22.03
2019-01-20T21:55:47.563Z,21.93
2019-01-20T21:58:16.948Z,25.60
2019-01-20T22:00:46.341Z,23.07
2019-01-20T22:03:15.447Z,23.00
2019-01-20T22:05:44.885Z,22.03
2019-01-20T22:08:14.010Z,20.10
2019-01-20T22:10:43.159Z,21.90
2019-01-20T22:13:12.368Z,19.87
2019-01-20T22:15:41.727Z,20.30
2019-01-20T22:18:10.904Z,20.37
2019-01-20T22:20:40.264Z,20.23
2019-01-20T22:23:09.715Z,21.17
2019-01-20T22:25:39.138Z,19.37
2019-01-20T22:28:08.251Z,20.67
2019-01-20T22:30:37.466Z,20.37
2019-01-20T22:33:06.624Z,18.67
2019-01-20T22:35:36.014Z,18.00
2019-01-20T22:38:05.215Z,21.37
2019-01-20T22:40:34.895Z,20.20
2019-01-20T22:43:04.043Z,18.30
2019-01-20T22:45:33.414Z,16.60
2019-01-20T22:48:02.772Z,18.50
2019-01-20T22:50:31.933Z,19.03
2019-01-20T22:53:01.091Z,17.43
2019-01-20T22:55:30.531Z,18.17
2019-01-20T22:57:59.931Z,17.33
2019-01-20T23:00:56.449Z,17.80
2019-01-20T23:03:26.071Z,20.30
2019-01-20T23:05:56.475Z,17.27
2019-01-20T23:08:25.642Z,19.17
2019-01-20T23:10:55.189Z,17.77
2019-01-20T23:13:24.700Z,16.33
2019-01-20T23:15:54.071Z,19.17
2019-01-20T23:18:23.206Z,19.40
2019-01-20T23:20:52.309Z,17.93
2019-01-20T23:23:21.730Z,17.77
2019-01-20T23:25:50.864Z,19.20
2019-01-20T23:28:19.979Z,17.53
2019-01-20T23:30:49.411Z,18.10
2019-01-20T23:33:18.596Z,16.40
2019-01-20T23:35:47.707Z,17.00
2019-01-20T23:38:16.856Z,18.00
2019-01-20T23:40:45.964Z,16.97
2019-01-20T23:43:15.356Z,16.70
2019-01-20T23:45:44.721Z,16.80
2019-01-20T23:48:14.089Z,18.60
2019-01-20T23:50:43.516Z,16.80
2019-01-20T23:53:12.628Z,17.63
2019-01-20T23:55:41.830Z,17.60
2019-01-20T23:58:10.992Z,18.00
